sensor_id;sensor_type;location;lat;lon;timestamp;P1;durP1;ratioP1;P2;durP2;ratioP2
67433;SDS011;54305;47.950;6.572;2024-02-15T00:01:26;10.63;;;2.60;;
67433;SDS011;54305;47.950;6.572;2024-02-15T00:03:51;6.03;;;1.92;;
67433;SDS011;54305;47.950;6.572;2024-02-15T00:06:17;5.80;;;1.92;;
67433;SDS011;54305;47.950;6.572;2024-02-15T00:08:44;7.95;;;2.78;;
67433;SDS011;54305;47.950;6.572;2024-02-15T00:11:10;4.00;;;2.40;;
67433;SDS011;54305;47.950;6.572;2024-02-15T00:13:35;6.32;;;2.28;;
67433;SDS011;54305;47.950;6.572;2024-02-15T00:16:01;5.63;;;2.10;;
67433;SDS011;54305;47.950;6.572;2024-02-15T00:18:27;6.20;;;2.08;;
67433;SDS011;54305;47.950;6.572;2024-02-15T00:20:52;5.75;;;2.00;;
67433;SDS011;54305;47.950;6.572;2024-02-15T00:23:17;5.80;;;2.72;;
67433;SDS011;54305;47.950;6.572;2024-02-15T00:25:43;7.25;;;1.90;;
67433;SDS011;54305;47.950;6.572;2024-02-15T00:28:10;8.13;;;2.25;;
67433;SDS011;54305;47.950;6.572;2024-02-15T00:30:36;6.47;;;2.30;;
67433;SDS011;54305;47.950;6.572;2024-02-15T00:33:02;8.15;;;2.30;;
67433;SDS011;54305;47.950;6.572;2024-02-15T00:35:28;8.02;;;2.33;;
67433;SDS011;54305;47.950;6.572;2024-02-15T00:37:53;5.93;;;2.08;;
67433;SDS011;54305;47.950;6.572;2024-02-15T00:40:18;7.32;;;2.35;;
67433;SDS011;54305;47.950;6.572;2024-02-15T00:42:46;7.03;;;2.10;;
67433;SDS011;54305;47.950;6.572;2024-02-15T00:45:11;8.77;;;1.83;;
67433;SDS011;54305;47.950;6.572;2024-02-15T00:47:37;7.13;;;2.42;;
67433;SDS011;54305;47.950;6.572;2024-02-15T00:50:07;4.35;;;1.63;;
67433;SDS011;54305;47.950;6.572;2024-02-15T00:52:35;9.20;;;2.20;;
67433;SDS011;54305;47.950;6.572;2024-02-15T00:55:00;6.65;;;1.50;;
67433;SDS011;54305;47.950;6.572;2024-02-15T00:57:26;4.30;;;2.15;;
67433;SDS011;54305;47.950;6.572;2024-02-15T00:59:51;4.25;;;1.85;;
67433;SDS011;54305;47.950;6.572;2024-02-15T01:02:17;5.32;;;1.70;;
67433;SDS011;54305;47.950;6.572;2024-02-15T01:04:43;4.38;;;1.30;;
67433;SDS011;54305;47.950;6.572;2024-02-15T01:07:10;5.30;;;1.50;;
67433;SDS011;54305;47.950;6.572;2024-02-15T01:09:35;8.07;;;1.50;;
67433;SDS011;54305;47.950;6.572;2024-02-15T01:12:01;5.07;;;1.63;;
67433;SDS011;54305;47.950;6.572;2024-02-15T01:14:29;3.25;;;1.60;;
67433;SDS011;54305;47.950;6.572;2024-02-15T01:16:55;3.97;;;1.63;;
67433;SDS011;54305;47.950;6.572;2024-02-15T01:19:21;3.55;;;1.60;;
67433;SDS011;54305;47.950;6.572;2024-02-15T01:21:47;5.97;;;1.08;;
67433;SDS011;54305;47.950;6.572;2024-02-15T01:24:12;5.47;;;1.27;;
67433;SDS011;54305;47.950;6.572;2024-02-15T01:26:37;6.82;;;1.50;;
67433;SDS011;54305;47.950;6.572;2024-02-15T01:29:03;4.93;;;1.52;;
67433;SDS011;54305;47.950;6.572;2024-02-15T01:31:28;2.97;;;1.50;;
67433;SDS011;54305;47.950;6.572;2024-02-15T01:33:54;5.10;;;1.58;;
67433;SDS011;54305;47.950;6.572;2024-02-15T01:36:19;4.28;;;1.67;;
67433;SDS011;54305;47.950;6.572;2024-02-15T01:38:45;3.83;;;2.08;;
67433;SDS011;54305;47.950;6.572;2024-02-15T01:41:11;1.92;;;1.13;;
67433;SDS011;54305;47.950;6.572;2024-02-15T01:43:36;4.75;;;1.30;;
67433;SDS011;54305;47.950;6.572;2024-02-15T01:46:02;4.10;;;1.50;;
67433;SDS011;54305;47.950;6.572;2024-02-15T01:48:33;3.63;;;1.40;;
67433;SDS011;54305;47.950;6.572;2024-02-15T01:51:00;5.47;;;1.55;;
67433;SDS011;54305;47.950;6.572;2024-02-15T01:53:26;6.20;;;1.42;;
67433;SDS011;54305;47.950;6.572;2024-02-15T01:55:52;4.07;;;1.40;;
67433;SDS011;54305;47.950;6.572;2024-02-15T01:58:20;3.90;;;1.42;;
67433;SDS011;54305;47.950;6.572;2024-02-15T02:00:46;3.58;;;1.60;;
67433;SDS011;54305;47.950;6.572;2024-02-15T02:03:13;3.45;;;1.48;;
67433;SDS011;54305;47.950;6.572;2024-02-15T02:05:40;3.10;;;1.55;;
67433;SDS011;54305;47.950;6.572;2024-02-15T02:08:06;5.07;;;1.75;;
67433;SDS011;54305;47.950;6.572;2024-02-15T02:10:35;1.88;;;1.23;;
67433;SDS011;54305;47.950;6.572;2024-02-15T02:13:01;1.70;;;1.13;;
67433;SDS011;54305;47.950;6.572;2024-02-15T02:15:27;3.15;;;1.45;;
67433;SDS011;54305;47.950;6.572;2024-02-15T02:17:54;3.58;;;1.90;;
67433;SDS011;54305;47.950;6.572;2024-02-15T02:20:19;4.20;;;1.60;;
67433;SDS011;54305;47.950;6.572;2024-02-15T02:22:46;3.17;;;1.50;;
67433;SDS011;54305;47.950;6.572;2024-02-15T02:25:13;6.28;;;1.40;;
67433;SDS011;54305;47.950;6.572;2024-02-15T02:27:39;3.80;;;1.48;;
67433;SDS011;54305;47.950;6.572;2024-02-15T02:30:05;3.80;;;1.55;;
67433;SDS011;54305;47.950;6.572;2024-02-15T02:32:39;4.10;;;1.63;;
67433;SDS011;54305;47.950;6.572;2024-02-15T02:35:06;1.60;;;1.00;;
67433;SDS011;54305;47.950;6.572;2024-02-15T02:37:32;10.63;;;1.73;;
67433;SDS011;54305;47.950;6.572;2024-02-15T02:40:00;3.65;;;1.52;;
67433;SDS011;54305;47.950;6.572;2024-02-15T02:42:25;4.93;;;1.23;;
67433;SDS011;54305;47.950;6.572;2024-02-15T02:44:51;5.55;;;1.13;;
67433;SDS011;54305;47.950;6.572;2024-02-15T02:47:16;1.77;;;1.27;;
67433;SDS011;54305;47.950;6.572;2024-02-15T02:49:41;2.97;;;0.95;;
67433;SDS011;54305;47.950;6.572;2024-02-15T02:52:07;1.75;;;1.13;;
67433;SDS011;54305;47.950;6.572;2024-02-15T02:54:32;2.58;;;0.93;;
67433;SDS011;54305;47.950;6.572;2024-02-15T02:56:58;3.03;;;1.05;;
67433;SDS011;54305;47.950;6.572;2024-02-15T02:59:24;1.30;;;0.70;;
67433;SDS011;54305;47.950;6.572;2024-02-15T03:01:50;1.63;;;0.93;;
67433;SDS011;54305;47.950;6.572;2024-02-15T03:04:15;1.50;;;0.82;;
67433;SDS011;54305;47.950;6.572;2024-02-15T03:06:44;2.53;;;0.80;;
67433;SDS011;54305;47.950;6.572;2024-02-15T03:09:09;3.80;;;1.10;;
67433;SDS011;54305;47.950;6.572;2024-02-15T03:11:36;2.08;;;1.00;;
67433;SDS011;54305;47.950;6.572;2024-02-15T03:14:02;1.98;;;0.63;;
67433;SDS011;54305;47.950;6.572;2024-02-15T03:16:29;1.73;;;0.70;;
67433;SDS011;54305;47.950;6.572;2024-02-15T03:18:58;1.35;;;0.75;;
67433;SDS011;54305;47.950;6.572;2024-02-15T03:21:27;2.03;;;0.80;;
67433;SDS011;54305;47.950;6.572;2024-02-15T03:23:53;3.20;;;1.13;;
67433;SDS011;54305;47.950;6.572;2024-02-15T03:26:21;3.58;;;1.10;;
67433;SDS011;54305;47.950;6.572;2024-02-15T03:28:55;2.50;;;0.98;;
67433;SDS011;54305;47.950;6.572;2024-02-15T03:31:20;1.77;;;0.90;;
67433;SDS011;54305;47.950;6.572;2024-02-15T03:33:45;3.15;;;1.00;;
67433;SDS011;54305;47.950;6.572;2024-02-15T03:36:11;2.95;;;1.10;;
67433;SDS011;54305;47.950;6.572;2024-02-15T03:38:41;3.95;;;0.95;;
67433;SDS011;54305;47.950;6.572;2024-02-15T03:41:06;3.05;;;1.25;;
67433;SDS011;54305;47.950;6.572;2024-02-15T03:43:31;4.43;;;0.90;;
67433;SDS011;54305;47.950;6.572;2024-02-15T03:45:58;3.10;;;1.20;;
67433;SDS011;54305;47.950;6.572;2024-02-15T03:48:24;2.58;;;0.90;;
67433;SDS011;54305;47.950;6.572;2024-02-15T03:50:49;5.85;;;1.13;;
67433;SDS011;54305;47.950;6.572;2024-02-15T03:53:14;3.25;;;1.42;;
67433;SDS011;54305;47.950;6.572;2024-02-15T03:55:40;2.95;;;1.17;;
67433;SDS011;54305;47.950;6.572;2024-02-15T03:58:06;2.28;;;1.05;;
67433;SDS011;54305;47.950;6.572;2024-02-15T04:00:32;3.20;;;1.20;;
67433;SDS011;54305;47.950;6.572;2024-02-15T04:02:58;2.47;;;1.40;;
67433;SDS011;54305;47.950;6.572;2024-02-15T04:05:25;2.65;;;1.38;;
67433;SDS011;54305;47.950;6.572;2024-02-15T04:07:51;2.60;;;1.10;;
67433;SDS011;54305;47.950;6.572;2024-02-15T04:10:18;2.38;;;1.38;;
67433;SDS011;54305;47.950;6.572;2024-02-15T04:12:44;2.05;;;1.00;;
67433;SDS011;54305;47.950;6.572;2024-02-15T04:15:09;1.38;;;0.80;;
67433;SDS011;54305;47.950;6.572;2024-02-15T04:17:41;2.40;;;1.15;;
67433;SDS011;54305;47.950;6.572;2024-02-15T04:20:08;2.08;;;1.00;;
67433;SDS011;54305;47.950;6.572;2024-02-15T04:22:34;3.15;;;1.20;;
67433;SDS011;54305;47.950;6.572;2024-02-15T04:25:06;1.58;;;1.00;;
67433;SDS011;54305;47.950;6.572;2024-02-15T04:27:34;1.15;;;0.90;;
67433;SDS011;54305;47.950;6.572;2024-02-15T04:30:00;2.63;;;1.33;;
67433;SDS011;54305;47.950;6.572;2024-02-15T04:32:27;1.65;;;0.98;;
67433;SDS011;54305;47.950;6.572;2024-02-15T04:34:54;3.25;;;1.30;;
67433;SDS011;54305;47.950;6.572;2024-02-15T04:37:19;3.83;;;1.77;;
67433;SDS011;54305;47.950;6.572;2024-02-15T04:39:45;2.45;;;1.25;;
67433;SDS011;54305;47.950;6.572;2024-02-15T04:42:12;2.78;;;1.50;;
67433;SDS011;54305;47.950;6.572;2024-02-15T04:44:40;3.75;;;0.93;;
67433;SDS011;54305;47.950;6.572;2024-02-15T04:47:06;3.72;;;0.90;;
67433;SDS011;54305;47.950;6.572;2024-02-15T04:49:34;2.47;;;0.95;;
67433;SDS011;54305;47.950;6.572;2024-02-15T04:54:29;3.00;;;0.80;;
67433;SDS011;54305;47.950;6.572;2024-02-15T04:56:54;3.85;;;0.90;;
67433;SDS011;54305;47.950;6.572;2024-02-15T04:59:21;3.33;;;0.70;;
67433;SDS011;54305;47.950;6.572;2024-02-15T05:01:50;2.10;;;0.88;;
67433;SDS011;54305;47.950;6.572;2024-02-15T05:04:16;2.55;;;1.02;;
67433;SDS011;54305;47.950;6.572;2024-02-15T05:06:43;3.55;;;0.80;;
67433;SDS011;54305;47.950;6.572;2024-02-15T05:09:09;3.10;;;1.08;;
67433;SDS011;54305;47.950;6.572;2024-02-15T05:11:36;3.42;;;0.70;;
67433;SDS011;54305;47.950;6.572;2024-02-15T05:14:03;2.05;;;0.85;;
67433;SDS011;54305;47.950;6.572;2024-02-15T05:16:31;2.35;;;0.70;;
67433;SDS011;54305;47.950;6.572;2024-02-15T05:18:57;1.65;;;0.90;;
67433;SDS011;54305;47.950;6.572;2024-02-15T05:21:22;1.83;;;0.60;;
67433;SDS011;54305;47.950;6.572;2024-02-15T05:23:48;1.88;;;0.80;;
67433;SDS011;54305;47.950;6.572;2024-02-15T05:26:13;1.88;;;0.60;;
67433;SDS011;54305;47.950;6.572;2024-02-15T05:28:41;2.42;;;0.60;;
67433;SDS011;54305;47.950;6.572;2024-02-15T05:31:14;1.17;;;0.45;;
67433;SDS011;54305;47.950;6.572;2024-02-15T05:33:48;2.85;;;0.98;;
67433;SDS011;54305;47.950;6.572;2024-02-15T05:36:18;1.67;;;0.90;;
67433;SDS011;54305;47.950;6.572;2024-02-15T05:38:48;1.55;;;0.70;;
67433;SDS011;54305;47.950;6.572;2024-02-15T05:41:16;2.60;;;0.85;;
67433;SDS011;54305;47.950;6.572;2024-02-15T05:43:42;1.10;;;0.73;;
67433;SDS011;54305;47.950;6.572;2024-02-15T05:46:08;2.20;;;0.85;;
67433;SDS011;54305;47.950;6.572;2024-02-15T05:48:35;1.90;;;0.93;;
67433;SDS011;54305;47.950;6.572;2024-02-15T05:51:04;4.20;;;1.35;;
67433;SDS011;54305;47.950;6.572;2024-02-15T05:53:30;3.20;;;0.75;;
67433;SDS011;54305;47.950;6.572;2024-02-15T05:56:01;2.17;;;0.70;;
67433;SDS011;54305;47.950;6.572;2024-02-15T05:58:31;0.90;;;0.50;;
67433;SDS011;54305;47.950;6.572;2024-02-15T06:00:57;1.85;;;0.70;;
67433;SDS011;54305;47.950;6.572;2024-02-15T06:03:29;1.25;;;0.57;;
67433;SDS011;54305;47.950;6.572;2024-02-15T06:05:56;1.45;;;0.70;;
67433;SDS011;54305;47.950;6.572;2024-02-15T06:08:26;2.15;;;0.80;;
67433;SDS011;54305;47.950;6.572;2024-02-15T06:10:52;2.45;;;0.80;;
67433;SDS011;54305;47.950;6.572;2024-02-15T06:13:18;1.85;;;0.60;;
67433;SDS011;54305;47.950;6.572;2024-02-15T06:15:45;1.98;;;0.80;;
67433;SDS011;54305;47.950;6.572;2024-02-15T06:18:14;2.00;;;1.38;;
67433;SDS011;54305;47.950;6.572;2024-02-15T06:20:41;2.42;;;0.80;;
67433;SDS011;54305;47.950;6.572;2024-02-15T06:23:08;3.08;;;0.80;;
67433;SDS011;54305;47.950;6.572;2024-02-15T06:25:34;1.98;;;0.85;;
67433;SDS011;54305;47.950;6.572;2024-02-15T06:28:00;1.45;;;0.60;;
67433;SDS011;54305;47.950;6.572;2024-02-15T06:30:31;2.38;;;0.77;;
67433;SDS011;54305;47.950;6.572;2024-02-15T06:33:16;0.95;;;0.55;;
67433;SDS011;54305;47.950;6.572;2024-02-15T06:36:03;3.15;;;0.88;;
67433;SDS011;54305;47.950;6.572;2024-02-15T06:38:48;1.20;;;0.40;;
67433;SDS011;54305;47.950;6.572;2024-02-15T06:41:32;4.53;;;0.65;;
67433;SDS011;54305;47.950;6.572;2024-02-15T06:43:57;3.80;;;0.82;;
67433;SDS011;54305;47.950;6.572;2024-02-15T06:46:23;1.13;;;0.50;;
67433;SDS011;54305;47.950;6.572;2024-02-15T06:48:49;1.30;;;0.40;;
67433;SDS011;54305;47.950;6.572;2024-02-15T06:51:14;3.47;;;0.50;;
67433;SDS011;54305;47.950;6.572;2024-02-15T06:53:40;2.95;;;0.60;;
67433;SDS011;54305;47.950;6.572;2024-02-15T06:56:08;1.23;;;0.50;;
67433;SDS011;54305;47.950;6.572;2024-02-15T06:58:35;1.80;;;0.47;;
67433;SDS011;54305;47.950;6.572;2024-02-15T07:01:00;5.38;;;0.50;;
67433;SDS011;54305;47.950;6.572;2024-02-15T07:03:27;0.60;;;0.40;;
67433;SDS011;54305;47.950;6.572;2024-02-15T07:05:54;1.25;;;0.47;;
67433;SDS011;54305;47.950;6.572;2024-02-15T07:08:21;4.97;;;0.50;;
67433;SDS011;54305;47.950;6.572;2024-02-15T07:10:49;1.38;;;0.85;;
67433;SDS011;54305;47.950;6.572;2024-02-15T07:13:15;4.80;;;0.80;;
67433;SDS011;54305;47.950;6.572;2024-02-15T07:15:40;2.60;;;0.60;;
67433;SDS011;54305;47.950;6.572;2024-02-15T07:18:06;3.10;;;0.70;;
67433;SDS011;54305;47.950;6.572;2024-02-15T07:20:34;2.70;;;0.73;;
67433;SDS011;54305;47.950;6.572;2024-02-15T07:23:00;5.38;;;0.90;;
67433;SDS011;54305;47.950;6.572;2024-02-15T07:25:26;1.75;;;0.82;;
67433;SDS011;54305;47.950;6.572;2024-02-15T07:27:51;2.92;;;0.60;;
67433;SDS011;54305;47.950;6.572;2024-02-15T07:30:17;3.83;;;0.98;;
67433;SDS011;54305;47.950;6.572;2024-02-15T07:32:43;0.75;;;0.38;;
67433;SDS011;54305;47.950;6.572;2024-02-15T07:35:08;0.80;;;0.45;;
67433;SDS011;54305;47.950;6.572;2024-02-15T07:37:35;2.42;;;0.57;;
67433;SDS011;54305;47.950;6.572;2024-02-15T07:40:00;2.65;;;0.80;;
67433;SDS011;54305;47.950;6.572;2024-02-15T07:42:25;2.42;;;0.80;;
67433;SDS011;54305;47.950;6.572;2024-02-15T07:44:51;1.13;;;0.50;;
67433;SDS011;54305;47.950;6.572;2024-02-15T07:47:20;1.05;;;0.70;;
67433;SDS011;54305;47.950;6.572;2024-02-15T07:49:49;1.77;;;0.60;;
67433;SDS011;54305;47.950;6.572;2024-02-15T07:52:15;0.55;;;0.30;;
67433;SDS011;54305;47.950;6.572;2024-02-15T07:54:40;0.80;;;0.50;;
67433;SDS011;54305;47.950;6.572;2024-02-15T07:57:06;0.60;;;0.30;;
67433;SDS011;54305;47.950;6.572;2024-02-15T07:59:31;4.32;;;0.40;;
67433;SDS011;54305;47.950;6.572;2024-02-15T08:01:56;1.77;;;0.50;;
67433;SDS011;54305;47.950;6.572;2024-02-15T08:04:23;2.42;;;0.60;;
67433;SDS011;54305;47.950;6.572;2024-02-15T08:06:49;1.52;;;0.45;;
67433;SDS011;54305;47.950;6.572;2024-02-15T08:09:17;1.65;;;0.68;;
67433;SDS011;54305;47.950;6.572;2024-02-15T08:11:45;0.75;;;0.52;;
67433;SDS011;54305;47.950;6.572;2024-02-15T08:14:10;0.57;;;0.32;;
67433;SDS011;54305;47.950;6.572;2024-02-15T08:16:36;2.45;;;0.60;;
67433;SDS011;54305;47.950;6.572;2024-02-15T08:19:02;0.50;;;0.40;;
67433;SDS011;54305;47.950;6.572;2024-02-15T08:21:30;1.08;;;0.30;;
67433;SDS011;54305;47.950;6.572;2024-02-15T08:24:04;1.65;;;0.43;;
67433;SDS011;54305;47.950;6.572;2024-02-15T08:26:37;4.22;;;0.70;;
67433;SDS011;54305;47.950;6.572;2024-02-15T08:29:03;3.92;;;0.40;;
67433;SDS011;54305;47.950;6.572;2024-02-15T08:31:29;2.10;;;0.60;;
67433;SDS011;54305;47.950;6.572;2024-02-15T08:33:59;1.77;;;0.30;;
67433;SDS011;54305;47.950;6.572;2024-02-15T08:36:25;2.22;;;0.60;;
67433;SDS011;54305;47.950;6.572;2024-02-15T08:38:51;1.98;;;0.55;;
67433;SDS011;54305;47.950;6.572;2024-02-15T08:41:16;2.53;;;0.50;;
67433;SDS011;54305;47.950;6.572;2024-02-15T08:43:46;2.65;;;0.80;;
67433;SDS011;54305;47.950;6.572;2024-02-15T08:46:13;0.95;;;0.40;;
67433;SDS011;54305;47.950;6.572;2024-02-15T08:48:39;0.98;;;0.40;;
67433;SDS011;54305;47.950;6.572;2024-02-15T08:51:05;1.83;;;0.50;;
67433;SDS011;54305;47.950;6.572;2024-02-15T08:53:33;0.80;;;0.40;;
67433;SDS011;54305;47.950;6.572;2024-02-15T08:55:59;0.47;;;0.38;;
67433;SDS011;54305;47.950;6.572;2024-02-15T08:58:25;1.67;;;0.63;;
67433;SDS011;54305;47.950;6.572;2024-02-15T09:00:51;1.85;;;0.32;;
67433;SDS011;54305;47.950;6.572;2024-02-15T09:03:19;0.75;;;0.50;;
67433;SDS011;54305;47.950;6.572;2024-02-15T09:05:44;1.35;;;0.40;;
67433;SDS011;54305;47.950;6.572;2024-02-15T09:08:09;0.43;;;0.40;;
67433;SDS011;54305;47.950;6.572;2024-02-15T09:10:35;1.17;;;0.43;;
67433;SDS011;54305;47.950;6.572;2024-02-15T09:13:04;0.75;;;0.40;;
67433;SDS011;54305;47.950;6.572;2024-02-15T09:15:31;0.68;;;0.40;;
67433;SDS011;54305;47.950;6.572;2024-02-15T09:17:56;2.58;;;0.60;;
67433;SDS011;54305;47.950;6.572;2024-02-15T09:20:23;1.20;;;0.55;;
67433;SDS011;54305;47.950;6.572;2024-02-15T09:22:53;3.17;;;0.70;;
67433;SDS011;54305;47.950;6.572;2024-02-15T09:25:19;1.55;;;0.50;;
67433;SDS011;54305;47.950;6.572;2024-02-15T09:27:45;1.60;;;0.68;;
67433;SDS011;54305;47.950;6.572;2024-02-15T09:30:11;1.52;;;0.55;;
67433;SDS011;54305;47.950;6.572;2024-02-15T09:32:37;1.58;;;0.60;;
67433;SDS011;54305;47.950;6.572;2024-02-15T09:35:04;1.95;;;0.88;;
67433;SDS011;54305;47.950;6.572;2024-02-15T09:37:36;0.90;;;0.50;;
67433;SDS011;54305;47.950;6.572;2024-02-15T09:40:04;0.95;;;0.50;;
67433;SDS011;54305;47.950;6.572;2024-02-15T09:45:00;1.20;;;0.43;;
67433;SDS011;54305;47.950;6.572;2024-02-15T09:47:28;1.90;;;0.40;;
67433;SDS011;54305;47.950;6.572;2024-02-15T09:49:59;1.23;;;0.47;;
67433;SDS011;54305;47.950;6.572;2024-02-15T09:52:24;1.80;;;0.70;;
67433;SDS011;54305;47.950;6.572;2024-02-15T09:54:49;2.88;;;0.63;;
67433;SDS011;54305;47.950;6.572;2024-02-15T09:57:17;1.88;;;0.52;;
67433;SDS011;54305;47.950;6.572;2024-02-15T09:59:44;0.77;;;0.32;;
67433;SDS011;54305;47.950;6.572;2024-02-15T10:02:10;0.32;;;0.22;;
67433;SDS011;54305;47.950;6.572;2024-02-15T10:04:41;0.63;;;0.40;;
67433;SDS011;54305;47.950;6.572;2024-02-15T10:07:07;1.38;;;0.40;;
67433;SDS011;54305;47.950;6.572;2024-02-15T10:09:34;0.38;;;0.30;;
67433;SDS011;54305;47.950;6.572;2024-02-15T10:12:02;1.58;;;0.40;;
67433;SDS011;54305;47.950;6.572;2024-02-15T10:14:31;1.33;;;0.40;;
67433;SDS011;54305;47.950;6.572;2024-02-15T10:17:00;3.63;;;0.60;;
67433;SDS011;54305;47.950;6.572;2024-02-15T10:19:31;1.02;;;0.43;;
67433;SDS011;54305;47.950;6.572;2024-02-15T10:22:05;1.15;;;0.30;;
67433;SDS011;54305;47.950;6.572;2024-02-15T10:24:32;0.77;;;0.40;;
67433;SDS011;54305;47.950;6.572;2024-02-15T10:27:00;0.55;;;0.22;;
67433;SDS011;54305;47.950;6.572;2024-02-15T10:29:31;1.30;;;0.50;;
67433;SDS011;54305;47.950;6.572;2024-02-15T10:31:59;0.77;;;0.40;;
67433;SDS011;54305;47.950;6.572;2024-02-15T10:34:26;0.28;;;0.17;;
67433;SDS011;54305;47.950;6.572;2024-02-15T10:36:55;0.70;;;0.35;;
67433;SDS011;54305;47.950;6.572;2024-02-15T10:39:34;0.32;;;0.28;;
67433;SDS011;54305;47.950;6.572;2024-02-15T10:42:00;1.08;;;0.30;;
67433;SDS011;54305;47.950;6.572;2024-02-15T10:44:25;1.33;;;0.25;;
67433;SDS011;54305;47.950;6.572;2024-02-15T10:46:52;1.30;;;0.45;;
67433;SDS011;54305;47.950;6.572;2024-02-15T10:49:22;1.52;;;0.40;;
67433;SDS011;54305;47.950;6.572;2024-02-15T10:51:55;1.25;;;0.40;;
67433;SDS011;54305;47.950;6.572;2024-02-15T10:56:57;0.45;;;0.20;;
67433;SDS011;54305;47.950;6.572;2024-02-15T10:59:31;1.40;;;0.30;;
67433;SDS011;54305;47.950;6.572;2024-02-15T11:01:59;0.40;;;0.20;;
67433;SDS011;54305;47.950;6.572;2024-02-15T11:04:25;1.42;;;0.38;;
67433;SDS011;54305;47.950;6.572;2024-02-15T11:06:57;2.05;;;0.35;;
67433;SDS011;54305;47.950;6.572;2024-02-15T11:09:25;0.98;;;0.22;;
67433;SDS011;54305;47.950;6.572;2024-02-15T11:11:55;0.60;;;0.20;;
67433;SDS011;54305;47.950;6.572;2024-02-15T11:14:30;0.80;;;0.38;;
67433;SDS011;54305;47.950;6.572;2024-02-15T11:16:57;0.73;;;0.30;;
67433;SDS011;54305;47.950;6.572;2024-02-15T11:22:00;1.75;;;0.50;;
67433;SDS011;54305;47.950;6.572;2024-02-15T11:24:30;0.82;;;0.43;;
67433;SDS011;54305;47.950;6.572;2024-02-15T11:27:05;1.05;;;0.10;;
67433;SDS011;54305;47.950;6.572;2024-02-15T11:38:09;2.67;;;0.40;;
67433;SDS011;54305;47.950;6.572;2024-02-15T11:43:07;0.98;;;0.30;;
67433;SDS011;54305;47.950;6.572;2024-02-15T11:45:34;0.85;;;0.30;;
67433;SDS011;54305;47.950;6.572;2024-02-15T11:48:09;0.82;;;0.43;;
67433;SDS011;54305;47.950;6.572;2024-02-15T11:50:36;0.45;;;0.25;;
67433;SDS011;54305;47.950;6.572;2024-02-15T11:53:07;0.68;;;0.30;;
67433;SDS011;54305;47.950;6.572;2024-02-15T11:55:36;1.65;;;0.30;;
67433;SDS011;54305;47.950;6.572;2024-02-15T11:58:05;0.98;;;0.30;;
67433;SDS011;54305;47.950;6.572;2024-02-15T12:00:32;1.25;;;0.32;;
67433;SDS011;54305;47.950;6.572;2024-02-15T12:06:01;1.48;;;0.38;;
67433;SDS011;54305;47.950;6.572;2024-02-15T12:08:46;1.08;;;0.30;;
67433;SDS011;54305;47.950;6.572;2024-02-15T12:11:31;2.40;;;0.43;;
67433;SDS011;54305;47.950;6.572;2024-02-15T12:14:15;1.20;;;0.40;;
67433;SDS011;54305;47.950;6.572;2024-02-15T12:17:00;0.57;;;0.35;;
67433;SDS011;54305;47.950;6.572;2024-02-15T12:19:49;0.63;;;0.25;;
67433;SDS011;54305;47.950;6.572;2024-02-15T12:22:19;1.20;;;0.38;;
67433;SDS011;54305;47.950;6.572;2024-02-15T12:25:00;1.05;;;0.17;;
67433;SDS011;54305;47.950;6.572;2024-02-15T12:27:54;0.80;;;0.28;;
67433;SDS011;54305;47.950;6.572;2024-02-15T12:30:20;0.55;;;0.25;;
67433;SDS011;54305;47.950;6.572;2024-02-15T12:32:49;0.60;;;0.40;;
67433;SDS011;54305;47.950;6.572;2024-02-15T12:35:15;1.15;;;0.50;;
67433;SDS011;54305;47.950;6.572;2024-02-15T12:37:44;0.60;;;0.30;;
67433;SDS011;54305;47.950;6.572;2024-02-15T12:40:31;0.60;;;0.40;;
67433;SDS011;54305;47.950;6.572;2024-02-15T12:42:57;0.50;;;0.38;;
67433;SDS011;54305;47.950;6.572;2024-02-15T12:45:25;0.40;;;0.30;;
67433;SDS011;54305;47.950;6.572;2024-02-15T12:47:54;0.50;;;0.10;;
67433;SDS011;54305;47.950;6.572;2024-02-15T12:50:21;2.20;;;0.30;;
67433;SDS011;54305;47.950;6.572;2024-02-15T12:52:48;0.22;;;0.17;;
67433;SDS011;54305;47.950;6.572;2024-02-15T12:55:15;0.30;;;0.10;;
67433;SDS011;54305;47.950;6.572;2024-02-15T12:57:45;1.17;;;0.40;;
67433;SDS011;54305;47.950;6.572;2024-02-15T13:00:15;3.58;;;1.33;;
67433;SDS011;54305;47.950;6.572;2024-02-15T13:02:47;3.10;;;1.77;;
67433;SDS011;54305;47.950;6.572;2024-02-15T13:05:18;3.03;;;1.08;;
67433;SDS011;54305;47.950;6.572;2024-02-15T13:07:44;4.88;;;1.40;;
67433;SDS011;54305;47.950;6.572;2024-02-15T13:10:13;11.07;;;4.60;;
67433;SDS011;54305;47.950;6.572;2024-02-15T13:12:40;2.83;;;0.90;;
67433;SDS011;54305;47.950;6.572;2024-02-15T13:15:06;1.48;;;0.30;;
67433;SDS011;54305;47.950;6.572;2024-02-15T13:17:36;0.35;;;0.28;;
67433;SDS011;54305;47.950;6.572;2024-02-15T13:20:03;0.88;;;0.20;;
67433;SDS011;54305;47.950;6.572;2024-02-15T13:22:37;1.58;;;0.80;;
67433;SDS011;54305;47.950;6.572;2024-02-15T13:25:04;1.67;;;0.30;;
67433;SDS011;54305;47.950;6.572;2024-02-15T13:27:32;1.00;;;0.40;;
67433;SDS011;54305;47.950;6.572;2024-02-15T13:29:58;0.52;;;0.20;;
67433;SDS011;54305;47.950;6.572;2024-02-15T13:32:23;0.43;;;0.22;;
67433;SDS011;54305;47.950;6.572;2024-02-15T13:34:49;1.23;;;0.47;;
67433;SDS011;54305;47.950;6.572;2024-02-15T13:37:17;1.67;;;0.50;;
67433;SDS011;54305;47.950;6.572;2024-02-15T13:39:45;1.17;;;0.52;;
67433;SDS011;54305;47.950;6.572;2024-02-15T13:42:11;2.67;;;0.50;;
67433;SDS011;54305;47.950;6.572;2024-02-15T13:44:36;1.75;;;0.45;;
67433;SDS011;54305;47.950;6.572;2024-02-15T13:47:02;3.05;;;0.80;;
67433;SDS011;54305;47.950;6.572;2024-02-15T13:49:28;1.50;;;0.30;;
67433;SDS011;54305;47.950;6.572;2024-02-15T13:51:56;0.90;;;0.25;;
67433;SDS011;54305;47.950;6.572;2024-02-15T13:54:27;0.55;;;0.32;;
67433;SDS011;54305;47.950;6.572;2024-02-15T13:56:53;0.22;;;0.15;;
67433;SDS011;54305;47.950;6.572;2024-02-15T13:59:18;0.50;;;0.30;;
67433;SDS011;54305;47.950;6.572;2024-02-15T14:01:44;0.93;;;0.50;;
67433;SDS011;54305;47.950;6.572;2024-02-15T14:04:11;2.10;;;0.57;;
67433;SDS011;54305;47.950;6.572;2024-02-15T14:06:38;1.67;;;0.63;;
67433;SDS011;54305;47.950;6.572;2024-02-15T14:09:05;1.98;;;0.40;;
67433;SDS011;54305;47.950;6.572;2024-02-15T14:11:31;0.93;;;0.35;;
67433;SDS011;54305;47.950;6.572;2024-02-15T14:13:57;0.88;;;0.50;;
67433;SDS011;54305;47.950;6.572;2024-02-15T14:16:23;0.75;;;0.38;;
67433;SDS011;54305;47.950;6.572;2024-02-15T14:18:49;1.00;;;0.35;;
67433;SDS011;54305;47.950;6.572;2024-02-15T14:21:16;0.47;;;0.35;;
67433;SDS011;54305;47.950;6.572;2024-02-15T14:23:43;1.95;;;0.40;;
67433;SDS011;54305;47.950;6.572;2024-02-15T14:26:09;0.25;;;0.13;;
67433;SDS011;54305;47.950;6.572;2024-02-15T14:28:35;0.63;;;0.22;;
67433;SDS011;54305;47.950;6.572;2024-02-15T14:31:00;0.65;;;0.30;;
67433;SDS011;54305;47.950;6.572;2024-02-15T14:36:10;0.98;;;0.43;;
67433;SDS011;54305;47.950;6.572;2024-02-15T14:38:36;2.22;;;1.05;;
67433;SDS011;54305;47.950;6.572;2024-02-15T14:41:02;5.32;;;0.63;;
67433;SDS011;54305;47.950;6.572;2024-02-15T14:43:31;15.38;;;6.90;;
67433;SDS011;54305;47.950;6.572;2024-02-15T14:45:57;1.27;;;0.90;;
67433;SDS011;54305;47.950;6.572;2024-02-15T14:48:27;0.80;;;0.28;;
67433;SDS011;54305;47.950;6.572;2024-02-15T14:50:52;1.20;;;0.30;;
67433;SDS011;54305;47.950;6.572;2024-02-15T14:53:18;0.60;;;0.40;;
67433;SDS011;54305;47.950;6.572;2024-02-15T14:55:44;0.40;;;0.30;;
67433;SDS011;54305;47.950;6.572;2024-02-15T14:58:14;1.60;;;0.35;;
67433;SDS011;54305;47.950;6.572;2024-02-15T15:00:43;0.68;;;0.32;;
67433;SDS011;54305;47.950;6.572;2024-02-15T15:03:09;1.90;;;0.57;;
67433;SDS011;54305;47.950;6.572;2024-02-15T15:05:36;0.90;;;0.30;;
67433;SDS011;54305;47.950;6.572;2024-02-15T15:08:20;3.47;;;1.05;;
67433;SDS011;54305;47.950;6.572;2024-02-15T15:11:04;4.18;;;1.58;;
67433;SDS011;54305;47.950;6.572;2024-02-15T15:13:48;0.30;;;0.20;;
67433;SDS011;54305;47.950;6.572;2024-02-15T15:16:13;0.50;;;0.22;;
67433;SDS011;54305;47.950;6.572;2024-02-15T15:18:42;1.63;;;0.40;;